Time;durP1;ratioP1;P1;durP2;ratioP2;P2;SDS_P1;SDS_P2;PMS_P1;PMS_P2;Temp;Humidity;BMP_temperature;BMP_pressure;BME280_temperature;BME280_humidity;BME280_pressure;Samples;Min_cycle;Max_cycle;Signal;HPM_P1;HPM_P2
2020/12/28 00:00:42;;;;;;;6.20;3.70;;;5.50;65.30;;;;;;5053314;28;20492;-67
2020/12/28 00:03:08;;;;;;;6.28;3.58;;;5.60;65.50;;;;;;5052829;28;20112;-67
2020/12/28 00:05:34;;;;;;;6.25;3.63;;;5.60;65.40;;;;;;5038167;28;20041;-68
2020/12/28 00:07:59;;;;;;;5.47;3.72;;;5.60;65.50;;;;;;5035278;28;20083;-68
2020/12/28 00:10:25;;;;;;;7.05;3.75;;;5.60;65.70;;;;;;5046814;28;20029;-68
2020/12/28 00:12:50;;;;;;;6.47;3.53;;;5.60;65.70;;;;;;5052313;28;20226;-68
2020/12/28 00:15:24;;;;;;;7.15;4.00;;;5.60;65.90;;;;;;5053081;28;20489;-68
2020/12/28 00:17:51;;;;;;;5.93;3.55;;;5.60;65.90;;;;;;5052292;28;20040;-68
2020/12/28 00:20:20;;;;;;;5.35;3.63;;;5.60;65.90;;;;;;5052790;28;20044;-68
2020/12/28 00:22:45;;;;;;;6.63;3.97;;;5.60;66.00;;;;;;5046865;28;20177;-68
2020/12/28 00:25:11;;;;;;;8.65;4.45;;;5.60;66.10;;;;;;5033802;28;20532;-68
2020/12/28 00:27:37;;;;;;;7.30;3.75;;;5.60;66.20;;;;;;5050260;28;20059;-68
2020/12/28 00:30:04;;;;;;;6.82;3.72;;;5.60;66.30;;;;;;5053683;28;20060;-68
2020/12/28 00:32:33;;;;;;;6.50;4.00;;;5.60;66.50;;;;;;5048766;28;20450;-68
2020/12/28 00:34:59;;;;;;;7.85;4.30;;;5.60;66.70;;;;;;5035555;28;20025;-68
2020/12/28 00:37:24;;;;;;;9.02;3.83;;;5.60;66.80;;;;;;5046526;28;20078;-68
2020/12/28 00:39:49;;;;;;;9.15;4.80;;;5.60;67.00;;;;;;5052904;28;20029;-68
2020/12/28 00:42:15;;;;;;;7.75;4.43;;;5.60;67.30;;;;;;5049318;28;20334;-68
2020/12/28 00:44:40;;;;;;;7.47;4.47;;;5.60;67.70;;;;;;5035650;28;20047;-68
2020/12/28 00:47:08;;;;;;;7.25;4.32;;;5.50;67.80;;;;;;5052288;28;20350;-68
2020/12/28 00:49:33;;;;;;;8.30;4.68;;;5.50;68.00;;;;;;5051261;28;20083;-68
2020/12/28 00:51:59;;;;;;;7.05;4.10;;;5.60;68.90;;;;;;5049262;28;20059;-68
2020/12/28 00:54:24;;;;;;;8.52;5.00;;;5.50;68.50;;;;;;5052268;28;20402;-68
2020/12/28 00:56:50;;;;;;;9.38;5.20;;;5.50;68.70;;;;;;5040413;28;20021;-68
2020/12/28 00:59:16;;;;;;;8.32;5.60;;;5.50;69.00;;;;;;5052992;28;20130;-68
2020/12/28 01:01:41;;;;;;;7.75;4.63;;;5.50;69.30;;;;;;5039486;28;20432;-70
2020/12/28 01:04:06;;;;;;;8.55;5.00;;;5.50;69.60;;;;;;5052704;28;20033;-68
2020/12/28 01:06:33;;;;;;;7.75;4.85;;;5.40;70.10;;;;;;5030553;28;20040;-68
2020/12/28 01:08:58;;;;;;;7.95;5.00;;;5.40;70.50;;;;;;5053312;28;20017;-68
2020/12/28 01:11:23;;;;;;;7.43;4.32;;;5.40;70.70;;;;;;5037544;28;20043;-68
2020/12/28 01:13:49;;;;;;;7.65;4.53;;;5.40;71.10;;;;;;5053038;28;20029;-68
2020/12/28 01:16:14;;;;;;;9.23;4.22;;;5.40;71.30;;;;;;5041098;28;20108;-68
2020/12/28 01:18:43;;;;;;;7.30;4.63;;;5.40;71.60;;;;;;5045420;28;20028;-68
2020/12/28 01:21:09;;;;;;;8.93;5.60;;;5.40;72.00;;;;;;5034236;28;20036;-68
2020/12/28 01:23:34;;;;;;;8.70;4.50;;;5.40;72.70;;;;;;5046934;28;20557;-68
2020/12/28 01:26:00;;;;;;;9.07;5.47;;;5.30;73.20;;;;;;5015920;28;20026;-68
2020/12/28 01:28:25;;;;;;;7.88;4.43;;;5.30;73.40;;;;;;5051863;28;20440;-67
2020/12/28 01:30:51;;;;;;;10.93;4.93;;;5.30;73.90;;;;;;5052137;28;20025;-68
2020/12/28 01:33:16;;;;;;;10.32;4.57;;;5.30;74.00;;;;;;5039013;28;20033;-67
2020/12/28 01:35:42;;;;;;;11.98;4.65;;;5.30;74.40;;;;;;5050980;28;20036;-67
2020/12/28 01:38:07;;;;;;;9.35;4.78;;;5.30;74.70;;;;;;5052150;28;20171;-67
2020/12/28 01:40:33;;;;;;;8.60;4.43;;;5.20;75.10;;;;;;5033173;28;20037;-67
2020/12/28 01:42:59;;;;;;;7.80;4.45;;;5.30;75.30;;;;;;5048660;28;20353;-67
2020/12/28 01:45:25;;;;;;;7.90;4.80;;;5.30;75.50;;;;;;5052422;28;20029;-68
2020/12/28 01:47:50;;;;;;;10.20;5.00;;;5.20;75.90;;;;;;5049851;28;20033;-68
2020/12/28 01:50:16;;;;;;;7.53;4.60;;;5.20;76.10;;;;;;5052050;28;20445;-68
2020/12/28 01:52:42;;;;;;;6.85;4.22;;;5.20;76.40;;;;;;5039465;28;20043;-68
2020/12/28 01:55:16;;;;;;;8.25;5.25;;;5.20;76.90;;;;;;5129194;27;20403;-67
2020/12/28 01:57:41;;;;;;;8.27;4.63;;;5.30;77.10;;;;;;5099606;28;20431;-67
2020/12/28 02:00:07;;;;;;;7.05;4.47;;;5.30;77.10;;;;;;5088892;28;20028;-67
2020/12/28 02:02:33;;;;;;;7.22;4.22;;;5.30;77.50;;;;;;5098828;28;20525;-67
2020/12/28 02:04:58;;;;;;;7.82;4.20;;;5.30;77.70;;;;;;5107529;28;20077;-67
2020/12/28 02:07:30;;;;;;;9.43;4.95;;;5.30;77.90;;;;;;5100695;28;20035;-67
2020/12/28 02:09:55;;;;;;;7.60;4.53;;;5.30;78.70;;;;;;5108419;28;20032;-67
2020/12/28 02:12:21;;;;;;;9.30;5.00;;;5.30;78.40;;;;;;5098304;28;20044;-67
2020/12/28 02:14:46;;;;;;;10.57;4.55;;;5.30;78.50;;;;;;5088241;28;20568;-67
2020/12/28 02:17:12;;;;;;;8.68;4.50;;;5.40;78.70;;;;;;5094153;28;20043;-67
2020/12/28 02:19:37;;;;;;;7.30;4.63;;;5.40;78.90;;;;;;5092006;28;20499;-67
2020/12/28 02:22:02;;;;;;;6.78;4.43;;;5.40;79.00;;;;;;5093286;28;20097;-68
2020/12/28 02:24:28;;;;;;;9.50;4.88;;;5.40;79.20;;;;;;5085797;28;20642;-68
2020/12/28 02:26:53;;;;;;;7.93;4.60;;;5.40;79.30;;;;;;5088020;28;20035;-67
2020/12/28 02:29:19;;;;;;;8.57;4.93;;;5.40;79.40;;;;;;5087712;28;20032;-67
2020/12/28 02:31:44;;;;;;;8.00;4.45;;;5.40;79.60;;;;;;5087104;28;20032;-67
2020/12/28 02:34:10;;;;;;;7.97;4.80;;;5.40;79.80;;;;;;5087895;28;20048;-68
2020/12/28 02:36:35;;;;;;;7.40;4.93;;;5.40;80.00;;;;;;5087612;28;20028;-68
2020/12/28 02:39:01;;;;;;;8.07;4.90;;;5.40;80.20;;;;;;5088781;28;20036;-68
2020/12/28 02:41:26;;;;;;;8.15;4.15;;;5.30;80.20;;;;;;5095691;28;20403;-68
2020/12/28 02:43:52;;;;;;;8.15;4.72;;;5.40;80.50;;;;;;5092748;28;20032;-68
2020/12/28 02:46:18;;;;;;;9.00;5.00;;;5.30;80.70;;;;;;5087606;28;20123;-68
2020/12/28 02:48:44;;;;;;;8.23;4.93;;;5.40;80.80;;;;;;5086331;28;20040;-68
2020/12/28 02:51:13;;;;;;;7.40;4.50;;;5.40;81.00;;;;;;5090214;28;20032;-68
2020/12/28 02:53:39;;;;;;;7.03;4.47;;;5.30;81.00;;;;;;5087057;28;20110;-68
2020/12/28 02:56:04;;;;;;;6.70;3.95;;;5.40;81.20;;;;;;5085984;28;20036;-68
2020/12/28 02:58:30;;;;;;;6.70;4.13;;;5.40;81.40;;;;;;5087355;28;20035;-69
2020/12/28 03:00:56;;;;;;;7.95;4.97;;;5.40;81.50;;;;;;5087319;28;20166;-70
2020/12/28 03:03:21;;;;;;;8.13;5.10;;;5.40;81.70;;;;;;5087287;28;20039;-69
2020/12/28 03:05:47;;;;;;;9.43;5.03;;;5.40;81.90;;;;;;5078352;28;20025;-69
2020/12/28 03:08:12;;;;;;;8.63;4.28;;;5.40;82.00;;;;;;5073008;28;20431;-70
2020/12/28 03:10:38;;;;;;;7.50;4.35;;;5.40;82.00;;;;;;5089536;28;20111;-70
2020/12/28 03:13:03;;;;;;;7.68;4.88;;;5.40;82.20;;;;;;5085678;28;20389;-70
2020/12/28 03:15:29;;;;;;;7.57;4.65;;;5.40;82.30;;;;;;5073557;28;20051;-69
2020/12/28 03:17:54;;;;;;;8.98;4.88;;;5.40;82.50;;;;;;5072967;28;20418;-69
2020/12/28 03:20:20;;;;;;;7.80;4.72;;;5.40;82.60;;;;;;5074149;28;20024;-69
2020/12/28 03:22:45;;;;;;;8.13;4.88;;;5.40;82.80;;;;;;5073434;28;20459;-68
2020/12/28 03:25:10;;;;;;;9.10;5.07;;;5.40;82.80;;;;;;5072366;28;20024;-68
2020/12/28 03:27:36;;;;;;;7.82;4.55;;;5.40;82.90;;;;;;5074009;28;20430;-69
2020/12/28 03:30:02;;;;;;;8.70;5.07;;;5.40;83.00;;;;;;5073417;28;20111;-69
2020/12/28 03:32:28;;;;;;;9.77;4.93;;;5.40;83.10;;;;;;5073320;28;20036;-69
2020/12/28 03:34:53;;;;;;;8.85;5.22;;;5.50;83.20;;;;;;5072529;28;20144;-69
2020/12/28 03:37:19;;;;;;;10.30;5.40;;;5.50;83.40;;;;;;5072083;28;20017;-69
2020/12/28 03:39:44;;;;;;;7.70;5.05;;;5.50;83.50;;;;;;5071044;28;20036;-69
2020/12/28 03:42:09;;;;;;;8.85;5.93;;;5.50;83.60;;;;;;5072831;28;20013;-69
2020/12/28 03:44:35;;;;;;;7.85;5.00;;;5.50;83.70;;;;;;5073195;28;20032;-69
2020/12/28 03:47:00;;;;;;;8.82;5.32;;;5.50;83.70;;;;;;5073113;28;20108;-69
2020/12/28 03:49:26;;;;;;;9.52;5.45;;;5.50;83.70;;;;;;5073546;28;20036;-69
2020/12/28 03:51:51;;;;;;;8.32;5.05;;;5.50;83.90;;;;;;5072871;28;20473;-69
2020/12/28 03:54:17;;;;;;;7.75;4.70;;;5.50;83.90;;;;;;5072354;28;20175;-69
2020/12/28 03:56:42;;;;;;;8.80;5.50;;;5.50;83.90;;;;;;5072910;28;20021;-69
2020/12/28 03:59:08;;;;;;;8.60;5.45;;;5.40;84.50;;;;;;5073028;28;20262;-69
2020/12/28 04:01:34;;;;;;;7.47;4.45;;;5.30;84.60;;;;;;5072669;28;20463;-69
2020/12/28 04:03:59;;;;;;;7.13;5.38;;;5.30;84.60;;;;;;5072750;28;20034;-69
2020/12/28 04:06:25;;;;;;;7.28;4.60;;;5.30;84.70;;;;;;5072920;28;20060;-69
2020/12/28 04:08:50;;;;;;;7.05;4.40;;;5.20;84.90;;;;;;5072687;28;20031;-69
2020/12/28 04:11:16;;;;;;;7.03;4.43;;;5.20;85.20;;;;;;5072594;28;20020;-69
2020/12/28 04:13:41;;;;;;;7.55;4.38;;;5.20;85.50;;;;;;5071932;28;20044;-69
2020/12/28 04:16:07;;;;;;;7.72;4.45;;;5.10;85.60;;;;;;5072151;28;20052;-69
2020/12/28 04:18:32;;;;;;;6.90;4.55;;;5.10;85.80;;;;;;5071654;28;20070;-69
2020/12/28 04:20:58;;;;;;;7.50;4.25;;;5.10;85.90;;;;;;5072547;28;20027;-69
2020/12/28 04:23:23;;;;;;;6.22;4.43;;;5.10;87.30;;;;;;5072329;28;20100;-69
2020/12/28 04:25:49;;;;;;;7.82;5.75;;;5.10;86.80;;;;;;5072148;28;20024;-69
2020/12/28 04:28:14;;;;;;;7.03;4.70;;;5.10;86.70;;;;;;5072333;28;20028;-69
2020/12/28 04:30:40;;;;;;;8.07;4.85;;;5.00;87.40;;;;;;5071980;28;20024;-68
2020/12/28 04:33:05;;;;;;;7.32;4.10;;;5.10;87.40;;;;;;5072153;28;20158;-69
2020/12/28 04:35:31;;;;;;;6.22;4.32;;;5.10;87.60;;;;;;5070621;28;20064;-69
2020/12/28 04:37:56;;;;;;;8.45;4.88;;;5.00;87.40;;;;;;5070864;28;20028;-70
2020/12/28 04:40:22;;;;;;;6.95;4.70;;;5.10;87.80;;;;;;5071913;28;20032;-70
2020/12/28 04:42:48;;;;;;;8.88;5.43;;;5.10;87.80;;;;;;5071424;28;20047;-70
2020/12/28 04:45:13;;;;;;;8.60;5.30;;;5.00;88.10;;;;;;5071544;28;20025;-70
2020/12/28 04:47:39;;;;;;;7.13;4.68;;;5.00;88.10;;;;;;5071233;28;20025;-70
2020/12/28 04:50:06;;;;;;;6.93;4.63;;;5.00;88.20;;;;;;5072962;28;20029;-70
2020/12/28 04:52:33;;;;;;;6.57;4.88;;;5.00;88.60;;;;;;5088304;28;20111;-70
2020/12/28 04:54:59;;;;;;;7.70;4.72;;;5.00;88.50;;;;;;5071478;28;20131;-70
2020/12/28 04:57:24;;;;;;;6.82;4.43;;;5.00;88.60;;;;;;5071383;28;20097;-70
2020/12/28 04:59:54;;;;;;;7.88;4.55;;;5.00;88.90;;;;;;5069928;28;20032;-70
2020/12/28 05:02:20;;;;;;;7.13;4.60;;;5.10;88.50;;;;;;5070723;28;20118;-70
2020/12/28 05:04:46;;;;;;;6.03;4.05;;;5.10;88.70;;;;;;5071745;28;20404;-70
2020/12/28 05:07:11;;;;;;;7.72;4.80;;;5.10;88.80;;;;;;5069967;28;20039;-70
2020/12/28 05:09:37;;;;;;;6.47;4.60;;;5.10;89.20;;;;;;5071622;28;20483;-70
2020/12/28 05:12:04;;;;;;;5.65;4.30;;;5.10;89.00;;;;;;5071283;28;20039;-70
2020/12/28 05:14:30;;;;;;;7.45;5.35;;;5.10;89.00;;;;;;5070848;28;20064;-70
2020/12/28 05:16:57;;;;;;;6.78;4.35;;;5.10;89.10;;;;;;5071829;28;20025;-71
2020/12/28 05:19:22;;;;;;;7.05;4.72;;;5.10;89.10;;;;;;5073115;28;20407;-70
2020/12/28 05:21:48;;;;;;;6.28;4.68;;;5.20;89.00;;;;;;5071553;28;20032;-70
2020/12/28 05:24:14;;;;;;;7.45;4.72;;;5.20;89.10;;;;;;5070057;28;20255;-70
2020/12/28 05:26:44;;;;;;;7.78;5.57;;;5.20;89.40;;;;;;5071010;28;20078;-69
2020/12/28 05:29:15;;;;;;;6.22;4.15;;;5.20;89.20;;;;;;5081569;28;20454;-69
2020/12/28 05:31:43;;;;;;;7.13;4.90;;;5.30;89.30;;;;;;5070496;28;20075;-69
2020/12/28 05:34:13;;;;;;;8.65;5.43;;;5.20;89.20;;;;;;5070355;28;20495;-69
2020/12/28 05:36:39;;;;;;;6.82;4.53;;;5.20;89.20;;;;;;5071152;28;20051;-69
2020/12/28 05:39:05;;;;;;;7.93;4.72;;;5.30;89.30;;;;;;5070635;28;20484;-69
2020/12/28 05:41:31;;;;;;;6.68;4.53;;;5.30;89.30;;;;;;5070429;28;20428;-69
2020/12/28 05:43:56;;;;;;;7.53;5.05;;;5.30;89.20;;;;;;5070967;28;20028;-70
2020/12/28 05:46:23;;;;;;;7.65;4.97;;;5.30;89.20;;;;;;5071455;28;20048;-70
2020/12/28 05:48:54;;;;;;;7.63;5.03;;;5.30;89.30;;;;;;5074440;28;20091;-70
2020/12/28 05:51:19;;;;;;;7.78;5.00;;;5.30;89.40;;;;;;5083200;28;20449;-70
2020/12/28 05:53:47;;;;;;;6.20;4.20;;;5.30;89.30;;;;;;5076596;28;20179;-70
2020/12/28 05:56:14;;;;;;;7.72;4.50;;;5.30;89.50;;;;;;5069556;28;20032;-70
2020/12/28 05:58:43;;;;;;;8.50;5.30;;;5.30;89.60;;;;;;5070435;28;20492;-70
2020/12/28 06:01:10;;;;;;;8.48;5.35;;;5.20;89.60;;;;;;5070327;28;20032;-70
2020/12/28 06:03:40;;;;;;;8.52;5.47;;;5.20;89.70;;;;;;5070629;28;20036;-70
2020/12/28 06:06:07;;;;;;;7.70;5.03;;;5.20;89.80;;;;;;5070343;28;20031;-70
2020/12/28 06:08:32;;;;;;;8.35;5.07;;;5.20;89.80;;;;;;5076855;28;20055;-70
2020/12/28 06:11:03;;;;;;;8.02;5.65;;;5.10;89.80;;;;;;5089696;28;20115;-70
2020/12/28 06:13:29;;;;;;;7.63;5.07;;;5.10;90.10;;;;;;5069350;28;20489;-69
2020/12/28 06:15:58;;;;;;;8.38;5.35;;;5.10;90.10;;;;;;5070829;28;20031;-70
2020/12/28 06:18:24;;;;;;;7.13;4.88;;;5.00;89.90;;;;;;5070272;28;20032;-70
2020/12/28 06:20:49;;;;;;;8.73;5.22;;;5.00;90.00;;;;;;5070911;28;20070;-70
2020/12/28 06:23:26;;;;;;;7.97;5.18;;;5.00;90.10;;;;;;5070037;28;20108;-69
2020/12/28 06:25:55;;;;;;;8.70;5.40;;;5.00;90.10;;;;;;5071304;28;20134;-69
2020/12/28 06:28:27;;;;;;;9.75;5.95;;;5.00;90.10;;;;;;5070614;28;20029;-69
2020/12/28 06:31:08;;;;;;;10.57;5.55;;;4.90;90.10;;;;;;5070811;28;20086;-69
2020/12/28 06:33:34;;;;;;;10.02;6.05;;;5.00;90.20;;;;;;5069110;28;20063;-69
2020/12/28 06:36:00;;;;;;;7.93;5.47;;;4.90;90.30;;;;;;5070634;28;20070;-69
2020/12/28 06:38:26;;;;;;;8.10;5.18;;;4.90;90.30;;;;;;5071419;28;20037;-69
2020/12/28 06:40:51;;;;;;;10.27;6.07;;;4.90;90.30;;;;;;5072432;28;20556;-69
2020/12/28 06:43:19;;;;;;;9.25;6.00;;;4.90;90.40;;;;;;5082538;28;20036;-69
2020/12/28 06:45:50;;;;;;;10.25;6.63;;;4.80;90.50;;;;;;5078400;28;20028;-70
2020/12/28 06:48:25;;;;;;;9.23;5.82;;;4.80;90.40;;;;;;5073830;28;20044;-69
2020/12/28 06:50:53;;;;;;;8.57;6.18;;;4.90;90.50;;;;;;5074197;28;20040;-70
2020/12/28 06:53:24;;;;;;;10.18;6.07;;;4.80;90.40;;;;;;5073362;28;20501;-70
2020/12/28 06:55:50;;;;;;;9.30;6.13;;;4.90;90.50;;;;;;5073959;28;20484;-70
2020/12/28 06:58:16;;;;;;;8.43;5.80;;;4.80;90.50;;;;;;5072998;28;20056;-70
2020/12/28 07:00:41;;;;;;;8.57;5.70;;;4.80;90.50;;;;;;5073749;28;20432;-70
2020/12/28 07:03:12;;;;;;;8.95;5.78;;;4.80;90.50;;;;;;5074092;28;20452;-70
2020/12/28 07:05:38;;;;;;;11.65;6.53;;;4.80;90.50;;;;;;5078927;28;20040;-70
2020/12/28 07:08:04;;;;;;;8.27;5.85;;;4.80;90.60;;;;;;5084928;28;20038;-69
2020/12/28 07:10:29;;;;;;;9.38;6.45;;;4.70;90.70;;;;;;5074836;28;20044;-70
2020/12/28 07:13:04;;;;;;;11.75;6.35;;;4.70;90.70;;;;;;5074035;28;20108;-70
2020/12/28 07:15:30;;;;;;;11.07;6.53;;;4.70;90.80;;;;;;5094127;28;20122;-69
2020/12/28 07:18:03;;;;;;;9.57;6.18;;;4.70;90.80;;;;;;5082419;28;20108;-69
2020/12/28 07:20:29;;;;;;;10.82;6.93;;;4.70;90.90;;;;;;5085331;28;20111;-69
2020/12/28 07:22:54;;;;;;;8.95;5.63;;;4.70;90.90;;;;;;5077303;28;20059;-69
2020/12/28 07:25:20;;;;;;;8.77;6.30;;;4.70;90.90;;;;;;5084618;28;20388;-69
2020/12/28 07:27:45;;;;;;;10.27;6.30;;;4.70;91.00;;;;;;5076940;28;20025;-70
2020/12/28 07:30:13;;;;;;;9.75;6.13;;;4.70;91.10;;;;;;5073952;28;20099;-70
2020/12/28 07:32:40;;;;;;;9.32;6.15;;;4.70;91.10;;;;;;5073434;28;20042;-70
2020/12/28 07:35:07;;;;;;;9.23;6.47;;;4.70;91.20;;;;;;5073679;28;20033;-69
2020/12/28 07:37:38;;;;;;;10.05;6.03;;;4.70;91.20;;;;;;5076573;28;20492;-69
2020/12/28 07:40:04;;;;;;;8.23;6.03;;;4.70;91.20;;;;;;5073340;28;20405;-70
2020/12/28 07:42:29;;;;;;;10.10;6.95;;;4.70;91.30;;;;;;5072860;28;20032;-70
2020/12/28 07:44:59;;;;;;;8.90;5.70;;;4.70;91.30;;;;;;5073391;28;20056;-70
2020/12/28 07:47:45;;;;;;;10.68;6.07;;;4.70;91.30;;;;;;5077951;28;20028;-70
2020/12/28 07:50:14;;;;;;;8.98;6.18;;;4.70;91.30;;;;;;5084343;28;20039;-70
2020/12/28 07:52:50;;;;;;;8.43;5.90;;;4.80;91.30;;;;;;5074890;28;20020;-70
2020/12/28 07:55:20;;;;;;;9.73;6.00;;;4.70;91.40;;;;;;5071834;28;20094;-70
2020/12/28 07:57:52;;;;;;;10.65;6.28;;;4.80;91.40;;;;;;5077655;28;20017;-69
2020/12/28 08:00:20;;;;;;;9.63;6.50;;;4.80;91.50;;;;;;5084231;28;20032;-70
2020/12/28 08:02:51;;;;;;;7.85;5.80;;;4.80;91.70;;;;;;5073092;28;20099;-69
2020/12/28 08:05:18;;;;;;;9.23;6.47;;;4.80;91.50;;;;;;5071862;28;20112;-70
2020/12/28 08:07:44;;;;;;;8.93;6.30;;;4.80;91.60;;;;;;5073464;28;20033;-70
2020/12/28 08:10:10;;;;;;;7.82;5.63;;;4.80;91.50;;;;;;5092198;28;20449;-69
2020/12/28 08:12:40;;;;;;;10.10;6.47;;;4.90;91.60;;;;;;5075988;28;20052;-69
2020/12/28 08:15:06;;;;;;;10.18;6.85;;;4.90;91.60;;;;;;5070826;28;20040;-70
2020/12/28 08:17:31;;;;;;;10.77;6.72;;;4.90;91.60;;;;;;5074436;28;20028;-69
2020/12/28 08:20:11;;;;;;;11.32;6.78;;;4.90;91.60;;;;;;5083144;28;20412;-69
2020/12/28 08:22:37;;;;;;;14.77;7.47;;;5.00;91.60;;;;;;5073040;28;20048;-69
2020/12/28 08:25:06;;;;;;;9.73;6.75;;;5.00;91.60;;;;;;5072456;28;20044;-70
2020/12/28 08:27:32;;;;;;;10.30;6.50;;;5.00;91.60;;;;;;5078513;28;20444;-70
2020/12/28 08:29:59;;;;;;;13.10;7.18;;;5.10;91.60;;;;;;5075086;28;20033;-70
2020/12/28 08:32:31;;;;;;;9.18;6.22;;;5.10;91.60;;;;;;5078997;28;20029;-70
2020/12/28 08:34:59;;;;;;;10.10;6.57;;;5.10;91.60;;;;;;5073731;28;20075;-70
2020/12/28 08:37:25;;;;;;;9.52;6.30;;;5.20;91.60;;;;;;5086448;28;20081;-70
2020/12/28 08:39:51;;;;;;;11.18;6.75;;;5.20;91.60;;;;;;5075665;28;20024;-70
2020/12/28 08:42:33;;;;;;;8.32;6.45;;;5.30;91.60;;;;;;5089441;28;20047;-70
2020/12/28 08:45:01;;;;;;;10.18;6.65;;;5.30;91.50;;;;;;5074925;28;20043;-70
2020/12/28 08:47:30;;;;;;;9.77;6.22;;;5.30;91.60;;;;;;5078520;28;20040;-70
2020/12/28 08:49:56;;;;;;;9.45;6.03;;;5.30;91.60;;;;;;5072345;28;20025;-71
2020/12/28 08:52:23;;;;;;;8.80;6.03;;;5.30;91.50;;;;;;5073714;28;20020;-71
2020/12/28 08:54:56;;;;;;;10.02;6.63;;;5.40;91.60;;;;;;5071823;28;20051;-70
2020/12/28 08:57:24;;;;;;;10.63;6.20;;;5.50;91.50;;;;;;5071262;28;20024;-71
2020/12/28 08:59:51;;;;;;;7.43;5.93;;;5.50;91.40;;;;;;5081543;28;20036;-71
2020/12/28 09:02:18;;;;;;;10.57;6.50;;;5.50;91.40;;;;;;5084695;28;20037;-70
2020/12/28 09:04:44;;;;;;;9.30;6.07;;;5.50;91.40;;;;;;5072342;28;20064;-70
2020/12/28 09:07:10;;;;;;;9.90;6.13;;;5.60;91.40;;;;;;5089558;28;20032;-70
2020/12/28 09:09:38;;;;;;;9.05;6.05;;;5.60;91.30;;;;;;5079035;28;20044;-70
2020/12/28 09:12:03;;;;;;;9.52;6.60;;;5.60;91.30;;;;;;5071652;28;20048;-70
2020/12/28 09:14:29;;;;;;;10.00;6.85;;;5.70;91.20;;;;;;5071706;28;20024;-70
2020/12/28 09:16:54;;;;;;;9.27;6.43;;;5.70;91.20;;;;;;5072221;28;20020;-70
2020/12/28 09:19:19;;;;;;;9.52;6.65;;;5.70;91.20;;;;;;5071493;28;20031;-70
2020/12/28 09:21:45;;;;;;;10.07;7.07;;;5.70;91.10;;;;;;5071328;28;20025;-70
2020/12/28 09:24:10;;;;;;;11.15;6.82;;;5.80;91.10;;;;;;5073161;28;20035;-70
2020/12/28 09:26:36;;;;;;;11.98;7.80;;;5.80;91.00;;;;;;5091541;28;20119;-71
2020/12/28 09:29:02;;;;;;;9.30;6.03;;;5.80;91.00;;;;;;5075113;28;20028;-70
2020/12/28 09:31:27;;;;;;;10.93;6.47;;;5.90;91.00;;;;;;5084957;28;20563;-70
2020/12/28 09:33:53;;;;;;;9.57;6.25;;;5.90;91.00;;;;;;5075420;28;20119;-69
2020/12/28 09:36:20;;;;;;;9.20;5.85;;;5.90;90.90;;;;;;5086829;28;20030;-69
2020/12/28 09:38:48;;;;;;;8.18;5.90;;;6.00;90.80;;;;;;5077325;28;20487;-70
2020/12/28 09:41:13;;;;;;;11.15;6.70;;;6.00;90.70;;;;;;5079935;28;20033;-69
2020/12/28 09:43:41;;;;;;;11.15;6.65;;;6.10;90.70;;;;;;5078699;28;20058;-70
2020/12/28 09:46:07;;;;;;;8.90;5.78;;;6.10;90.60;;;;;;5075350;28;20120;-71
2020/12/28 09:48:33;;;;;;;8.88;5.80;;;6.10;90.50;;;;;;5074290;28;20036;-71
2020/12/28 09:50:58;;;;;;;8.93;5.88;;;6.10;90.40;;;;;;5078971;28;20016;-70
2020/12/28 09:53:24;;;;;;;10.95;6.30;;;6.10;90.40;;;;;;5088548;28;20408;-70
2020/12/28 09:55:49;;;;;;;9.75;6.15;;;6.20;90.30;;;;;;5081050;28;20384;-71
2020/12/28 09:58:15;;;;;;;7.88;5.13;;;6.30;90.40;;;;;;5074663;28;20154;-71
2020/12/28 10:00:40;;;;;;;7.13;5.07;;;6.30;90.30;;;;;;5078507;28;20023;-71
2020/12/28 10:03:06;;;;;;;9.73;5.40;;;6.30;90.20;;;;;;5087316;28;20024;-70
2020/12/28 10:05:31;;;;;;;8.05;5.18;;;6.30;90.20;;;;;;5079263;28;20086;-70
2020/12/28 10:07:57;;;;;;;8.75;5.25;;;6.40;90.20;;;;;;5072156;28;20039;-70
2020/12/28 10:10:23;;;;;;;6.90;5.15;;;6.40;90.10;;;;;;5077036;28;20036;-71
2020/12/28 10:12:48;;;;;;;8.93;5.30;;;6.40;90.00;;;;;;5086748;28;20022;-70
2020/12/28 10:15:15;;;;;;;7.28;4.85;;;6.50;90.00;;;;;;5078297;28;20134;-71
2020/12/28 10:18:20;;;;;;;9.00;5.35;;;6.50;89.50;;;;;;5083055;28;20021;-71
2020/12/28 10:20:45;;;;;;;7.10;4.40;;;6.60;89.40;;;;;;5094771;28;20158;-71
2020/12/28 10:23:11;;;;;;;7.70;4.65;;;6.60;89.20;;;;;;5082680;28;20107;-70
2020/12/28 10:25:36;;;;;;;7.18;5.03;;;6.60;89.00;;;;;;5075074;28;20031;-70
2020/12/28 10:28:02;;;;;;;8.50;5.10;;;6.60;88.90;;;;;;5077116;28;20118;-70
2020/12/28 10:30:28;;;;;;;6.55;4.53;;;6.60;88.80;;;;;;5074217;28;20033;-71
2020/12/28 10:32:54;;;;;;;6.80;4.50;;;6.70;89.20;;;;;;5073817;28;20140;-70
2020/12/28 10:35:20;;;;;;;6.30;4.80;;;6.70;88.50;;;;;;5090443;28;20115;-70
2020/12/28 10:37:46;;;;;;;9.65;5.07;;;6.80;88.00;;;;;;5075242;28;20036;-70
2020/12/28 10:40:11;;;;;;;6.97;4.70;;;6.80;87.80;;;;;;5076534;28;20020;-71
2020/12/28 10:42:37;;;;;;;8.73;5.32;;;6.80;87.80;;;;;;5079786;28;20024;-69
2020/12/28 10:45:04;;;;;;;6.97;4.88;;;6.80;87.70;;;;;;5088477;28;20032;-71
2020/12/28 10:47:29;;;;;;;7.70;4.60;;;6.90;87.70;;;;;;5090067;28;20063;-71
2020/12/28 10:49:55;;;;;;;7.30;4.72;;;6.90;87.40;;;;;;5094443;28;20480;-70
2020/12/28 10:52:20;;;;;;;8.77;5.10;;;6.90;87.30;;;;;;5089573;28;20031;-70
2020/12/28 10:54:46;;;;;;;5.75;4.10;;;7.00;87.10;;;;;;5073409;28;20201;-69
2020/12/28 10:57:11;;;;;;;7.38;4.85;;;7.00;86.90;;;;;;5079455;28;20028;-75
2020/12/28 10:59:37;;;;;;;7.82;4.55;;;7.00;87.10;;;;;;5089249;28;20074;-69
2020/12/28 11:02:02;;;;;;;6.68;4.43;;;7.00;87.00;;;;;;5074834;28;20071;-69
2020/12/28 11:04:27;;;;;;;7.10;4.45;;;7.00;86.80;;;;;;5075165;28;20551;-71
2020/12/28 11:06:53;;;;;;;9.10;4.57;;;7.10;86.60;;;;;;5076179;28;20021;-69
2020/12/28 11:09:18;;;;;;;6.72;4.80;;;7.10;86.60;;;;;;5080646;28;20158;-68
2020/12/28 11:11:48;;;;;;;7.18;4.60;;;7.10;86.40;;;;;;5094200;28;20073;-67
2020/12/28 11:14:14;;;;;;;6.85;4.68;;;7.10;86.20;;;;;;5076248;28;20028;-68
2020/12/28 11:16:39;;;;;;;7.75;4.78;;;7.10;86.20;;;;;;5074279;28;20109;-65
2020/12/28 11:19:04;;;;;;;7.40;4.50;;;7.10;86.00;;;;;;5073495;28;20567;-67
2020/12/28 11:21:30;;;;;;;7.72;4.93;;;7.20;86.00;;;;;;5076968;28;20112;-67
2020/12/28 11:23:59;;;;;;;8.80;4.75;;;7.20;85.80;;;;;;5082514;28;20035;-68
2020/12/28 11:26:25;;;;;;;8.10;5.05;;;7.20;85.60;;;;;;5080255;28;20025;-67
2020/12/28 11:28:50;;;;;;;7.00;4.57;;;7.20;85.50;;;;;;5086102;28;20074;-69
2020/12/28 11:31:17;;;;;;;6.78;4.43;;;7.20;85.30;;;;;;5077572;28;20445;-66
2020/12/28 11:33:43;;;;;;;6.47;4.15;;;7.20;85.30;;;;;;5075382;28;20044;-68
2020/12/28 11:36:08;;;;;;;7.22;4.90;;;7.20;85.10;;;;;;5094147;28;20100;-69
2020/12/28 11:38:34;;;;;;;9.43;4.93;;;7.20;85.00;;;;;;5081141;28;20039;-70
2020/12/28 11:40:59;;;;;;;8.18;4.55;;;7.20;84.90;;;;;;5072981;28;20020;-69
2020/12/28 11:43:25;;;;;;;8.65;4.88;;;7.20;85.00;;;;;;5082304;28;20039;-70
2020/12/28 11:45:51;;;;;;;7.63;4.20;;;7.20;85.00;;;;;;5080788;28;20031;-70
2020/12/28 11:48:16;;;;;;;7.68;5.07;;;7.20;85.00;;;;;;5073303;28;20028;-70
2020/12/28 11:50:42;;;;;;;5.32;3.80;;;7.20;85.10;;;;;;5087316;28;20384;-68
2020/12/28 11:53:07;;;;;;;7.03;4.70;;;7.20;85.10;;;;;;5085978;28;20032;-69
2020/12/28 11:56:02;;;;;;;6.88;4.80;;;7.30;85.00;;;;;;5084771;28;20035;-68
2020/12/28 11:58:18;;;;;;;;;;;7.30;85.00;;;;;;5076633;28;20158;-68
2020/12/28 12:00:44;;;;;;;7.35;4.45;;;7.30;85.10;;;;;;5093240;28;19999;-69
2020/12/28 12:03:09;;;;;;;8.07;4.95;;;7.30;84.70;;;;;;5084498;28;20025;-68
2020/12/28 12:05:34;;;;;;;6.97;4.60;;;7.30;84.60;;;;;;5073361;28;20048;-69
2020/12/28 12:08:00;;;;;;;6.47;4.22;;;7.30;84.50;;;;;;5073550;28;20024;-69
2020/12/28 12:10:25;;;;;;;9.45;5.93;;;7.30;84.50;;;;;;5074973;28;20074;-69
2020/12/28 12:12:51;;;;;;;7.90;5.32;;;7.30;84.50;;;;;;5072503;28;20070;-69
2020/12/28 12:15:16;;;;;;;7.10;4.95;;;7.40;84.60;;;;;;5073295;28;20047;-69
2020/12/28 12:17:42;;;;;;;9.02;5.75;;;7.40;84.50;;;;;;5074901;28;20088;-69
2020/12/28 12:20:07;;;;;;;7.70;4.85;;;7.40;84.50;;;;;;5075666;28;20093;-68
2020/12/28 12:22:33;;;;;;;7.88;4.82;;;7.40;84.50;;;;;;5077218;28;20020;-68
2020/12/28 12:24:58;;;;;;;7.45;4.57;;;7.40;84.40;;;;;;5072428;28;20017;-68
2020/12/28 12:27:24;;;;;;;7.95;5.30;;;7.40;84.50;;;;;;5072702;28;20027;-68
2020/12/28 12:29:49;;;;;;;5.63;4.20;;;7.40;84.20;;;;;;5072268;28;20449;-68
2020/12/28 12:32:15;;;;;;;6.18;4.45;;;7.40;84.20;;;;;;5072737;28;20050;-69
2020/12/28 12:34:41;;;;;;;6.70;4.47;;;7.40;84.30;;;;;;5078622;28;20370;-68
2020/12/28 12:37:07;;;;;;;7.05;4.53;;;7.40;84.40;;;;;;5071216;28;20668;-69
2020/12/28 12:39:32;;;;;;;8.68;5.03;;;7.50;84.40;;;;;;5076733;28;20039;-69
2020/12/28 12:41:58;;;;;;;7.20;4.78;;;7.50;84.60;;;;;;5079992;28;20024;-69
2020/12/28 12:44:23;;;;;;;7.50;5.22;;;7.50;84.50;;;;;;5073498;28;20520;-69
2020/12/28 12:46:49;;;;;;;6.20;4.15;;;7.50;84.40;;;;;;5072341;28;20380;-69
2020/12/28 12:49:14;;;;;;;8.95;5.07;;;7.50;84.20;;;;;;5071187;28;20040;-68
2020/12/28 12:51:40;;;;;;;7.47;4.75;;;7.60;84.20;;;;;;5072153;28;20465;-68